Time;durP1;ratioP1;P1;durP2;ratioP2;P2;SDS_P1;SDS_P2;PMS_P1;PMS_P2;Temp;Humidity;BMP_temperature;BMP_pressure;BME280_temperature;BME280_humidity;BME280_pressure;Samples;Min_cycle;Max_cycle;Signal;HPM_P1;HPM_P2
2022/01/10 00:00:15;;;;;;;11.63;4.65;;;2.40;99.90;;;;;;5082734;28;20041;-81
2022/01/10 00:02:43;;;;;;;17.60;5.47;;;2.30;99.90;;;;;;5094576;28;20039;-81
2022/01/10 00:05:09;;;;;;;15.02;5.32;;;2.30;99.90;;;;;;5084263;28;20057;-81
2022/01/10 00:07:39;;;;;;;10.65;4.30;;;2.30;99.90;;;;;;5092783;28;20062;-82
2022/01/10 00:10:06;;;;;;;14.35;6.03;;;2.30;99.90;;;;;;5100044;28;20052;-82
2022/01/10 00:12:32;;;;;;;16.42;5.63;;;2.30;99.90;;;;;;5090819;28;20051;-82
2022/01/10 00:14:58;;;;;;;23.77;5.80;;;2.30;99.90;;;;;;5089004;28;20427;-82
2022/01/10 00:17:24;;;;;;;14.32;5.43;;;2.30;99.90;;;;;;5094305;28;20210;-82
2022/01/10 00:19:50;;;;;;;15.32;5.00;;;2.20;99.90;;;;;;5080422;28;20043;-83
2022/01/10 00:22:15;;;;;;;13.55;4.38;;;2.50;99.90;;;;;;5088580;28;20044;-82
2022/01/10 00:24:41;;;;;;;17.98;5.43;;;2.20;99.90;;;;;;5068648;28;20099;-82
2022/01/10 00:27:07;;;;;;;13.80;4.63;;;2.30;99.90;;;;;;5097844;28;20059;-82
2022/01/10 00:29:33;;;;;;;10.27;4.60;;;3.10;99.90;;;;;;5081361;28;20040;-82
2022/01/10 00:31:58;;;;;;;14.95;4.57;;;2.10;99.90;;;;;;5102834;28;20054;-82
2022/01/10 00:34:25;;;;;;;16.70;5.40;;;2.10;99.90;;;;;;5093991;28;20099;-83
2022/01/10 00:36:51;;;;;;;16.95;5.00;;;2.00;99.90;;;;;;5091274;28;20044;-81
2022/01/10 00:39:17;;;;;;;10.13;4.25;;;2.00;99.90;;;;;;5079947;28;20056;-82
2022/01/10 00:41:44;;;;;;;15.23;4.78;;;1.90;99.90;;;;;;5092251;28;20044;-82
2022/01/10 00:44:11;;;;;;;11.70;5.10;;;1.90;99.90;;;;;;5079941;28;20112;-82
2022/01/10 00:46:36;;;;;;;16.10;5.75;;;1.90;99.90;;;;;;5089268;28;20041;-84
2022/01/10 00:49:03;;;;;;;12.32;4.97;;;1.80;99.90;;;;;;5092781;28;20560;-83
2022/01/10 00:51:29;;;;;;;12.98;4.95;;;1.80;99.90;;;;;;5098402;28;20063;-82
2022/01/10 00:53:55;;;;;;;16.85;4.97;;;1.80;99.90;;;;;;5080065;28;20033;-83
2022/01/10 00:56:21;;;;;;;15.38;4.95;;;1.70;99.90;;;;;;5062879;28;20548;-84
2022/01/10 00:58:48;;;;;;;13.27;5.00;;;1.70;99.90;;;;;;5077703;28;20618;-83
2022/01/10 01:01:14;;;;;;;14.05;5.00;;;1.60;99.90;;;;;;5084992;28;20108;-84
2022/01/10 01:03:41;;;;;;;9.95;4.90;;;1.60;99.90;;;;;;5080450;28;20066;-83
2022/01/10 01:06:07;;;;;;;15.55;4.85;;;1.60;99.90;;;;;;5064270;28;20083;-83
2022/01/10 01:08:34;;;;;;;14.40;5.47;;;1.60;99.90;;;;;;5080248;28;20044;-83
2022/01/10 01:12:02;;;;;;;10.77;4.85;;;1.60;99.90;;;;;;5080033;28;20072;-82
2022/01/10 01:13:55;;;;;;;13.32;5.43;;;1.60;99.90;;;;;;5080213;28;20093;-83
2022/01/10 01:24:28;;;;;;;17.37;7.17;;;1.60;99.90;;;;;;5088377;28;20119;-82
2022/01/10 01:26:54;;;;;;;13.55;5.25;;;1.60;99.90;;;;;;5079445;28;20734;-82
2022/01/10 01:29:26;;;;;;;17.27;6.28;;;1.50;99.90;;;;;;5080351;28;20102;-81
2022/01/10 01:31:52;;;;;;;18.52;5.18;;;2.80;99.90;;;;;;5089785;28;20055;-82
2022/01/10 01:34:19;;;;;;;13.60;5.38;;;1.50;99.90;;;;;;5078318;28;20044;-83
2022/01/10 01:36:49;;;;;;;11.25;5.50;;;1.50;99.90;;;;;;5086487;28;20048;-82
2022/01/10 01:39:21;;;;;;;19.42;6.15;;;1.50;99.90;;;;;;5091814;28;20173;-81
2022/01/10 01:41:48;;;;;;;17.63;5.85;;;1.50;99.90;;;;;;5089877;28;20059;-82
2022/01/10 01:44:15;;;;;;;13.05;5.40;;;1.50;99.90;;;;;;5080728;28;20127;-83
2022/01/10 01:46:42;;;;;;;14.25;5.70;;;1.40;99.90;;;;;;5078484;28;20048;-83
2022/01/10 01:49:09;;;;;;;16.80;5.80;;;1.60;99.90;;;;;;5094628;28;20059;-83
2022/01/10 01:51:35;;;;;;;20.52;6.40;;;1.40;99.90;;;;;;5098627;28;20048;-83
2022/01/10 01:54:02;;;;;;;20.02;6.15;;;1.40;99.90;;;;;;5091131;28;20134;-82
2022/01/10 01:56:27;;;;;;;12.35;5.55;;;1.40;99.90;;;;;;5091575;28;20079;-83
2022/01/10 01:58:54;;;;;;;15.50;6.20;;;1.40;99.90;;;;;;5077719;28;20041;-84
2022/01/10 02:01:21;;;;;;;16.40;5.63;;;1.40;99.90;;;;;;5094118;28;20029;-85
2022/01/10 02:03:48;;;;;;;13.65;6.05;;;1.30;99.90;;;;;;5077954;28;20048;-83
2022/01/10 02:06:14;;;;;;;16.25;6.85;;;1.20;99.90;;;;;;5090181;28;20094;-82
2022/01/10 02:08:41;;;;;;;15.55;6.68;;;1.20;99.90;;;;;;5099818;28;20051;-84
2022/01/10 02:11:09;;;;;;;18.20;6.78;;;1.30;99.90;;;;;;5080151;28;20077;-84
2022/01/10 02:13:36;;;;;;;15.63;6.95;;;1.30;99.90;;;;;;5076830;28;20476;-84
2022/01/10 02:16:05;;;;;;;19.30;7.25;;;1.30;99.90;;;;;;5078700;28;20052;-83
2022/01/10 02:18:31;;;;;;;15.77;6.68;;;1.20;99.90;;;;;;5088192;28;20048;-82
2022/01/10 02:21:00;;;;;;;15.98;7.20;;;1.20;99.90;;;;;;5077783;28;20047;-82
2022/01/10 02:23:27;;;;;;;18.20;7.40;;;1.20;99.90;;;;;;5078972;28;20047;-83
2022/01/10 02:25:54;;;;;;;16.13;6.43;;;1.20;99.90;;;;;;5083005;28;20055;-83
2022/01/10 02:28:20;;;;;;;13.20;6.45;;;1.10;99.90;;;;;;5085983;28;20131;-81
2022/01/10 02:30:46;;;;;;;15.57;7.15;;;1.10;99.90;;;;;;5079175;28;20044;-83
2022/01/10 02:33:12;;;;;;;18.83;6.72;;;1.10;99.90;;;;;;5099454;28;20033;-84
2022/01/10 02:35:53;;;;;;;17.92;7.90;;;1.20;99.90;;;;;;5079412;28;20174;-84
2022/01/10 02:38:19;;;;;;;18.85;7.88;;;1.10;99.90;;;;;;5078904;28;20056;-86
2022/01/10 02:40:47;;;;;;;17.40;7.38;;;0.90;99.90;;;;;;5077216;28;20048;-84
2022/01/10 02:43:12;;;;;;;21.52;8.23;;;0.90;99.90;;;;;;5090496;28;20046;-83
2022/01/10 02:45:38;;;;;;;19.67;7.28;;;0.90;99.90;;;;;;5080592;28;20083;-85
2022/01/10 02:48:04;;;;;;;13.85;7.03;;;0.90;99.90;;;;;;5077602;28;20111;-85
2022/01/10 02:50:30;;;;;;;19.40;7.35;;;0.90;99.90;;;;;;5085670;28;20044;-85
2022/01/10 02:52:56;;;;;;;20.50;7.03;;;0.80;99.90;;;;;;5085755;28;20061;-85
2022/01/10 02:55:21;;;;;;;17.85;8.10;;;0.80;99.90;;;;;;5086290;28;20044;-84
2022/01/10 02:57:47;;;;;;;21.52;7.95;;;0.70;99.90;;;;;;5077498;28;20045;-84
2022/01/10 03:00:21;;;;;;;17.08;8.07;;;0.80;99.90;;;;;;5077339;28;20064;-84
2022/01/10 03:02:51;;;;;;;19.20;8.25;;;0.90;99.90;;;;;;5076686;28;20048;-84
2022/01/10 03:05:19;;;;;;;21.63;9.52;;;0.80;99.90;;;;;;5077524;28;20063;-84
2022/01/10 03:07:46;;;;;;;19.65;8.68;;;0.70;99.90;;;;;;5092843;28;20065;-84
2022/01/10 03:10:12;;;;;;;19.58;8.95;;;0.70;99.90;;;;;;5097477;28;20043;-85
2022/01/10 03:12:38;;;;;;;26.98;9.13;;;1.10;99.90;;;;;;5062225;28;20060;-86
2022/01/10 03:15:07;;;;;;;20.70;8.90;;;0.70;99.90;;;;;;5076643;28;20056;-86
2022/01/10 03:17:33;;;;;;;20.77;9.98;;;0.70;99.90;;;;;;5077223;28;20091;-85
2022/01/10 03:19:59;;;;;;;25.38;9.02;;;0.70;99.90;;;;;;5091677;28;20040;-84
2022/01/10 03:22:26;;;;;;;20.05;8.35;;;0.80;99.90;;;;;;5091513;28;20043;-83
2022/01/10 03:24:53;;;;;;;20.92;9.18;;;1.30;99.90;;;;;;5094320;28;20542;-84
2022/01/10 03:27:19;;;;;;;24.20;10.02;;;1.80;99.90;;;;;;5102938;28;20447;-85
2022/01/10 03:29:45;;;;;;;20.42;9.68;;;0.70;99.90;;;;;;5101111;28;20047;-86
2022/01/10 03:32:11;;;;;;;25.23;8.55;;;0.70;99.90;;;;;;5099034;28;20103;-84
2022/01/10 03:34:38;;;;;;;19.90;9.90;;;0.80;99.90;;;;;;5101198;28;20040;-81
2022/01/10 03:37:04;;;;;;;15.80;9.38;;;0.80;99.90;;;;;;5080799;28;20574;-79
2022/01/10 03:39:30;;;;;;;27.23;9.98;;;0.80;99.90;;;;;;5101546;28;20048;-79
2022/01/10 03:41:55;;;;;;;21.77;9.18;;;0.90;99.90;;;;;;5100588;28;20052;-79
2022/01/10 03:44:21;;;;;;;21.80;9.48;;;0.80;99.90;;;;;;5102807;28;20048;-80
2022/01/10 03:46:47;;;;;;;34.33;12.27;;;0.90;99.90;;;;;;5100898;28;20087;-80
2022/01/10 03:49:13;;;;;;;24.55;9.93;;;0.90;99.90;;;;;;5096259;28;20493;-82
2022/01/10 03:51:39;;;;;;;18.23;8.88;;;1.80;99.90;;;;;;5102627;28;20127;-80
2022/01/10 03:54:05;;;;;;;25.08;9.85;;;0.90;99.90;;;;;;5092042;28;20094;-80
2022/01/10 03:56:32;;;;;;;20.13;9.77;;;0.70;99.90;;;;;;5082432;28;20075;-80
2022/01/10 03:58:58;;;;;;;21.92;9.43;;;0.80;99.90;;;;;;5080219;28;20077;-80
2022/01/10 04:01:24;;;;;;;17.23;7.97;;;0.80;99.90;;;;;;5081653;28;20104;-80
2022/01/10 04:03:50;;;;;;;20.40;9.45;;;1.10;99.90;;;;;;5067809;28;20105;-79
2022/01/10 04:06:15;;;;;;;20.80;8.85;;;0.80;99.90;;;;;;5090517;28;20149;-80
2022/01/10 04:08:41;;;;;;;25.98;8.98;;;0.80;99.90;;;;;;5095898;28;20494;-79
2022/01/10 04:11:07;;;;;;;18.15;10.10;;;0.80;99.90;;;;;;5090020;28;20041;-80
2022/01/10 04:13:33;;;;;;;21.38;9.40;;;0.70;99.90;;;;;;5092846;28;20044;-80
2022/01/10 04:15:59;;;;;;;16.63;8.77;;;0.70;99.90;;;;;;5080022;28;20060;-81
2022/01/10 04:18:24;;;;;;;18.80;9.32;;;0.60;99.90;;;;;;5086704;28;20129;-81
2022/01/10 04:20:50;;;;;;;23.50;8.88;;;0.60;99.90;;;;;;5063460;28;20781;-80
2022/01/10 04:23:17;;;;;;;23.35;10.23;;;0.50;99.90;;;;;;5081890;28;20062;-79
2022/01/10 04:25:43;;;;;;;19.40;8.68;;;0.50;99.90;;;;;;5101603;28;20075;-79
2022/01/10 04:28:09;;;;;;;24.98;10.00;;;0.70;99.90;;;;;;5095619;28;20059;-79
2022/01/10 04:30:35;;;;;;;26.58;9.90;;;0.70;99.90;;;;;;5090923;28;20066;-79
2022/01/10 04:33:02;;;;;;;19.88;9.70;;;0.90;99.90;;;;;;5083132;28;20582;-80
2022/01/10 04:35:30;;;;;;;21.40;9.35;;;0.50;99.90;;;;;;5084044;28;20073;-80
2022/01/10 04:37:56;;;;;;;22.90;9.38;;;0.60;99.90;;;;;;5085261;28;20036;-79
2022/01/10 04:40:23;;;;;;;26.83;10.93;;;0.40;99.90;;;;;;5091744;28;20526;-80
2022/01/10 04:42:49;;;;;;;18.92;8.73;;;0.40;99.90;;;;;;5090634;28;20111;-81
2022/01/10 04:45:15;;;;;;;19.90;10.38;;;0.40;99.90;;;;;;5085960;28;20090;-80
2022/01/10 04:47:41;;;;;;;21.23;9.77;;;0.30;99.90;;;;;;5080026;28;20048;-81
2022/01/10 04:52:49;;;;;;;21.33;9.90;;;1.00;99.90;;;;;;5079747;28;20052;-81
2022/01/10 04:55:15;;;;;;;20.35;10.38;;;0.30;99.90;;;;;;5088316;28;20079;-81
2022/01/10 04:57:42;;;;;;;23.63;11.48;;;0.30;99.90;;;;;;5086126;28;20044;-80
2022/01/10 05:00:10;;;;;;;22.65;11.23;;;0.30;99.90;;;;;;5079377;28;20590;-81
2022/01/10 05:02:37;;;;;;;30.80;10.88;;;0.30;99.90;;;;;;5079040;28;20052;-80
2022/01/10 05:05:03;;;;;;;22.75;10.75;;;0.30;99.90;;;;;;5079445;28;20057;-82
2022/01/10 05:07:29;;;;;;;25.02;12.27;;;0.30;99.90;;;;;;5079036;28;20041;-80
2022/01/10 05:09:57;;;;;;;28.75;11.13;;;0.30;99.90;;;;;;5079511;28;20491;-82
2022/01/10 05:12:25;;;;;;;22.13;10.32;;;0.30;99.90;;;;;;5093285;28;20040;-82
2022/01/10 05:14:51;;;;;;;25.02;12.10;;;0.30;99.90;;;;;;5090085;28;20049;-82
2022/01/10 05:17:19;;;;;;;21.65;11.30;;;0.30;99.90;;;;;;5092154;28;20056;-83
2022/01/10 05:19:44;;;;;;;31.05;12.77;;;0.30;99.90;;;;;;5095658;28;20056;-83
2022/01/10 05:22:10;;;;;;;22.33;10.27;;;0.80;99.90;;;;;;5087048;28;20591;-82
2022/01/10 05:24:36;;;;;;;27.00;11.55;;;0.60;99.90;;;;;;5090835;28;20032;-82
2022/01/10 05:27:02;;;;;;;27.75;11.32;;;0.30;99.90;;;;;;5086820;28;20044;-83
2022/01/10 05:29:27;;;;;;;27.70;13.20;;;0.30;99.90;;;;;;5082011;28;20058;-84
2022/01/10 05:31:53;;;;;;;27.20;11.90;;;0.30;99.90;;;;;;5097178;28;20044;-85
2022/01/10 05:34:19;;;;;;;27.63;11.95;;;0.20;99.90;;;;;;5083733;28;20054;-83
2022/01/10 05:36:45;;;;;;;27.52;11.93;;;0.30;99.90;;;;;;5092963;28;20036;-83
2022/01/10 05:39:10;;;;;;;27.33;11.75;;;0.30;99.90;;;;;;5083891;28;20454;-82
2022/01/10 05:41:36;;;;;;;30.52;12.63;;;0.30;99.90;;;;;;5081805;28;20104;-83
2022/01/10 05:44:03;;;;;;;25.90;12.52;;;0.30;99.90;;;;;;5082253;28;20044;-82
2022/01/10 05:46:29;;;;;;;26.80;12.43;;;0.30;99.90;;;;;;5079814;28;20040;-82
2022/01/10 05:49:00;;;;;;;23.05;12.50;;;0.30;99.90;;;;;;5078219;28;20059;-81
2022/01/10 05:51:32;;;;;;;29.67;12.15;;;0.30;99.90;;;;;;5092093;28;20051;-82
2022/01/10 05:53:59;;;;;;;28.25;13.43;;;0.30;99.90;;;;;;5093761;28;20084;-80
2022/01/10 05:56:25;;;;;;;27.95;13.68;;;0.30;99.90;;;;;;5091224;28;20049;-82
2022/01/10 05:58:51;;;;;;;29.70;13.80;;;0.30;99.90;;;;;;5077889;28;20098;-81
2022/01/10 06:01:16;;;;;;;24.05;13.55;;;0.30;99.90;;;;;;5079261;28;20083;-83
2022/01/10 06:03:42;;;;;;;30.13;14.25;;;0.30;99.90;;;;;;5080801;28;20052;-83
2022/01/10 06:06:08;;;;;;;26.40;13.63;;;0.30;99.90;;;;;;5083664;28;20051;-82
2022/01/10 06:08:34;;;;;;;27.50;13.68;;;0.30;99.90;;;;;;5095594;28;20532;-81
2022/01/10 06:10:59;;;;;;;30.48;15.05;;;0.30;99.90;;;;;;5083103;28;20044;-80
2022/01/10 06:13:25;;;;;;;25.42;14.02;;;0.30;99.90;;;;;;5082240;28;20059;-80
2022/01/10 06:15:51;;;;;;;28.95;14.80;;;0.20;99.90;;;;;;5097593;28;20139;-79
2022/01/10 06:18:17;;;;;;;25.00;13.88;;;0.20;99.90;;;;;;5087019;28;20049;-80
2022/01/10 06:20:43;;;;;;;23.90;12.95;;;0.20;99.90;;;;;;5088640;28;20052;-79
2022/01/10 06:23:11;;;;;;;23.85;14.02;;;0.10;99.90;;;;;;5082412;28;20514;-81
2022/01/10 06:25:38;;;;;;;27.65;14.43;;;0.10;99.90;;;;;;5092918;28;20519;-83
2022/01/10 06:28:05;;;;;;;30.23;14.95;;;0.10;99.90;;;;;;5078894;28;20040;-84
2022/01/10 06:30:31;;;;;;;24.88;14.05;;;0.10;99.90;;;;;;5092247;28;20048;-82
2022/01/10 06:32:57;;;;;;;30.88;14.88;;;0.10;99.90;;;;;;5099136;28;20058;-84
2022/01/10 06:35:24;;;;;;;26.95;15.00;;;0.10;99.90;;;;;;5092349;28;20040;-83
2022/01/10 06:37:50;;;;;;;28.55;15.23;;;0.10;99.90;;;;;;5080591;28;20103;-84
2022/01/10 06:40:16;;;;;;;25.33;14.02;;;0.20;99.90;;;;;;5087507;28;20582;-83
2022/01/10 06:42:42;;;;;;;26.30;15.70;;;0.00;99.90;;;;;;5078906;28;20078;-83
2022/01/10 06:45:09;;;;;;;22.90;13.35;;;0.50;99.90;;;;;;5060067;28;20048;-82
2022/01/10 06:47:35;;;;;;;23.40;13.18;;;-0.10;99.90;;;;;;5077702;28;20041;-82
2022/01/10 06:50:00;;;;;;;26.33;15.05;;;-0.10;99.90;;;;;;5085719;28;20495;-83
2022/01/10 06:52:26;;;;;;;28.00;15.23;;;-0.10;99.90;;;;;;5077614;28;20102;-82
2022/01/10 06:54:52;;;;;;;30.05;14.85;;;-0.10;99.90;;;;;;5082596;28;20050;-82
2022/01/10 06:57:18;;;;;;;28.75;15.43;;;0.00;99.90;;;;;;5084124;28;20062;-83
2022/01/10 06:59:43;;;;;;;32.53;15.82;;;0.00;99.90;;;;;;5077037;28;20052;-81
2022/01/10 07:02:09;;;;;;;26.65;15.07;;;0.10;99.90;;;;;;5081094;28;20054;-82
2022/01/10 07:04:35;;;;;;;28.73;15.90;;;0.00;99.90;;;;;;5078848;28;20036;-83
2022/01/10 07:07:01;;;;;;;25.60;14.30;;;0.00;99.90;;;;;;5076248;28;20075;-80
2022/01/10 07:09:27;;;;;;;22.33;14.68;;;0.10;99.90;;;;;;5088234;28;20083;-79
2022/01/10 07:11:52;;;;;;;32.40;16.23;;;0.00;99.90;;;;;;5096808;28;20052;-80
2022/01/10 07:14:18;;;;;;;31.65;16.60;;;0.00;99.90;;;;;;5079477;28;20348;-81
2022/01/10 07:16:44;;;;;;;35.05;16.40;;;0.10;99.90;;;;;;5076638;28;20077;-81
2022/01/10 07:19:10;;;;;;;35.55;15.40;;;-0.40;99.90;;;;;;5082943;28;20047;-82
2022/01/10 07:21:38;;;;;;;28.02;16.38;;;0.00;99.90;;;;;;5083669;28;20052;-82
2022/01/10 07:24:05;;;;;;;28.58;15.45;;;0.00;99.90;;;;;;5089960;28;20050;-83
2022/01/10 07:26:32;;;;;;;25.92;15.38;;;0.00;99.90;;;;;;5084649;28;20058;-83
2022/01/10 07:29:02;;;;;;;32.35;17.02;;;0.00;99.90;;;;;;5086674;28;20511;-80
2022/01/10 07:31:29;;;;;;;29.02;16.17;;;0.00;99.90;;;;;;5082935;28;20100;-82
2022/01/10 07:33:56;;;;;;;28.42;15.35;;;0.50;99.90;;;;;;5106094;28;20036;-81
2022/01/10 07:36:22;;;;;;;23.60;14.10;;;0.20;99.90;;;;;;5085088;28;20062;-80
2022/01/10 07:38:47;;;;;;;28.95;15.38;;;0.00;99.90;;;;;;5097058;28;20110;-82
2022/01/10 07:41:13;;;;;;;25.58;16.02;;;0.00;99.90;;;;;;5079111;28;20088;-82
2022/01/10 07:43:39;;;;;;;26.70;15.70;;;-0.10;99.90;;;;;;5086803;28;20045;-82
2022/01/10 07:46:05;;;;;;;29.23;15.15;;;-0.20;99.90;;;;;;5097489;28;20091;-83
2022/01/10 07:48:35;;;;;;;25.52;14.50;;;-0.20;99.90;;;;;;5091953;28;20037;-82
2022/01/10 07:51:01;;;;;;;25.50;14.43;;;-0.30;99.90;;;;;;5084399;28;20508;-83
2022/01/10 07:53:26;;;;;;;26.58;14.95;;;-0.30;99.90;;;;;;5094388;28;20097;-83
2022/01/10 07:55:52;;;;;;;30.75;14.15;;;-0.30;99.90;;;;;;5096143;28;20056;-83
2022/01/10 07:58:18;;;;;;;28.77;15.07;;;0.10;99.90;;;;;;5068071;28;20047;-83
2022/01/10 08:00:45;;;;;;;28.00;15.43;;;-0.30;99.90;;;;;;5090271;28;20083;-83
2022/01/10 08:03:11;;;;;;;25.80;14.65;;;-0.30;99.90;;;;;;5096215;28;20072;-83
2022/01/10 08:05:37;;;;;;;29.83;15.60;;;-0.30;99.90;;;;;;5082956;28;20051;-82
2022/01/10 08:08:02;;;;;;;26.75;15.13;;;-0.10;99.90;;;;;;5080228;28;20175;-81
2022/01/10 08:10:28;;;;;;;34.70;16.00;;;-0.20;99.90;;;;;;5083066;28;20074;-83
2022/01/10 08:12:54;;;;;;;31.55;17.25;;;-0.20;99.90;;;;;;5090349;28;20054;-79
2022/01/10 08:15:20;;;;;;;33.50;16.45;;;-0.20;99.90;;;;;;5099571;28;20048;-79
2022/01/10 08:17:46;;;;;;;35.80;17.20;;;-0.20;99.90;;;;;;5098638;28;20044;-79
2022/01/10 08:20:13;;;;;;;31.30;16.48;;;-0.10;99.90;;;;;;5082655;28;20040;-79
2022/01/10 08:22:39;;;;;;;28.95;17.85;;;-0.10;99.90;;;;;;5080076;28;20048;-83
2022/01/10 08:25:07;;;;;;;27.40;16.60;;;-0.10;99.90;;;;;;5088833;28;20047;-83
2022/01/10 08:27:34;;;;;;;29.33;16.35;;;0.00;99.90;;;;;;5088020;28;20130;-82
2022/01/10 08:30:00;;;;;;;29.23;16.10;;;0.00;99.90;;;;;;5092091;28;20036;-83
2022/01/10 08:32:26;;;;;;;35.00;17.52;;;0.00;99.90;;;;;;5110429;28;20039;-80
2022/01/10 08:34:52;;;;;;;31.75;17.35;;;0.00;99.90;;;;;;5096640;28;20123;-77
2022/01/10 08:37:18;;;;;;;34.00;16.48;;;0.00;99.90;;;;;;5092460;28;20047;-78
2022/01/10 08:39:49;;;;;;;28.58;16.42;;;0.00;99.90;;;;;;5094995;28;20082;-78
2022/01/10 08:42:19;;;;;;;28.95;15.63;;;-0.10;99.90;;;;;;5100700;28;20491;-79
2022/01/10 08:44:45;;;;;;;44.45;19.48;;;0.00;99.90;;;;;;5081116;28;20051;-79
2022/01/10 08:47:11;;;;;;;28.88;16.67;;;-0.10;99.90;;;;;;5083358;28;20143;-79
2022/01/10 08:49:37;;;;;;;32.40;18.38;;;-0.10;99.90;;;;;;5089327;28;20570;-80
2022/01/10 08:52:04;;;;;;;31.08;16.42;;;0.00;99.90;;;;;;5093493;28;20051;-80
2022/01/10 08:54:29;;;;;;;34.35;16.13;;;0.00;99.90;;;;;;5088933;28;20063;-80
2022/01/10 08:56:56;;;;;;;35.47;18.35;;;0.00;99.90;;;;;;5096634;28;20047;-80
2022/01/10 08:59:22;;;;;;;34.25;18.77;;;0.00;99.90;;;;;;5086502;28;20036;-80
2022/01/10 09:01:48;;;;;;;31.92;18.77;;;0.10;99.90;;;;;;5090954;28;20048;-80
2022/01/10 09:04:18;;;;;;;37.83;18.17;;;0.20;99.90;;;;;;5086257;28;20131;-81
2022/01/10 09:06:45;;;;;;;33.60;18.35;;;0.30;99.90;;;;;;5093325;28;20040;-81
2022/01/10 09:09:12;;;;;;;33.90;19.10;;;0.30;99.90;;;;;;5079784;28;20048;-81
2022/01/10 09:11:39;;;;;;;37.28;19.10;;;0.30;99.90;;;;;;5088066;28;20036;-81
2022/01/10 09:14:06;;;;;;;31.05;18.60;;;0.40;99.90;;;;;;5085158;28;20063;-81
2022/01/10 09:16:32;;;;;;;31.42;18.88;;;0.40;99.90;;;;;;5095474;28;20048;-80
2022/01/10 09:18:58;;;;;;;36.97;19.25;;;0.50;99.90;;;;;;5092612;28;20075;-81
2022/01/10 09:21:24;;;;;;;33.58;19.27;;;0.50;99.90;;;;;;5095212;28;20066;-80
2022/01/10 09:23:50;;;;;;;39.70;20.60;;;0.60;99.90;;;;;;5077468;28;20492;-80
2022/01/10 09:26:15;;;;;;;36.20;19.42;;;0.70;99.90;;;;;;5096957;28;20079;-80
2022/01/10 09:28:43;;;;;;;36.83;19.75;;;0.70;99.90;;;;;;5086806;28;20044;-80
2022/01/10 09:31:10;;;;;;;45.78;20.45;;;0.80;99.90;;;;;;5083096;28;20104;-80
2022/01/10 09:33:36;;;;;;;40.20;21.48;;;0.90;99.90;;;;;;5096364;28;20044;-79
2022/01/10 09:36:02;;;;;;;40.80;20.98;;;0.90;99.90;;;;;;5078279;28;20056;-80
2022/01/10 09:38:28;;;;;;;37.90;20.60;;;1.00;99.90;;;;;;5077445;28;20055;-80
2022/01/10 09:40:54;;;;;;;42.60;22.33;;;1.00;99.90;;;;;;5088429;28;20048;-80
2022/01/10 09:43:21;;;;;;;42.63;22.77;;;1.10;99.90;;;;;;5077867;28;20086;-80
2022/01/10 09:45:47;;;;;;;39.33;21.42;;;0.20;99.90;;;;;;5078671;28;20044;-81
2022/01/10 09:48:13;;;;;;;39.35;20.67;;;1.30;99.90;;;;;;5079947;28;20076;-81
2022/01/10 09:50:41;;;;;;;41.47;20.13;;;1.30;99.90;;;;;;5077226;28;20052;-80
2022/01/10 09:53:07;;;;;;;42.60;21.10;;;1.40;99.90;;;;;;5078124;28;20049;-79
2022/01/10 09:55:34;;;;;;;37.17;20.52;;;1.50;99.90;;;;;;5086328;28;20098;-80
2022/01/10 09:58:00;;;;;;;36.08;20.33;;;1.60;99.90;;;;;;5083505;28;20479;-79
2022/01/10 10:00:26;;;;;;;34.33;19.33;;;1.70;99.90;;;;;;5097334;28;20048;-80
2022/01/10 10:02:52;;;;;;;33.55;19.23;;;1.90;99.90;;;;;;5078212;28;20074;-81
2022/01/10 10:05:19;;;;;;;35.40;20.45;;;1.80;99.90;;;;;;5089334;28;20052;-81
2022/01/10 10:07:45;;;;;;;34.13;19.00;;;1.90;99.90;;;;;;5089130;28;20116;-80
2022/01/10 10:10:13;;;;;;;34.58;18.67;;;2.10;99.90;;;;;;5096860;28;20491;-82
2022/01/10 10:12:44;;;;;;;30.10;17.13;;;2.20;99.90;;;;;;5085225;28;20044;-81
2022/01/10 10:15:12;;;;;;;29.90;17.90;;;2.40;99.90;;;;;;5077068;28;20875;-82
2022/01/10 10:17:39;;;;;;;31.20;17.30;;;2.60;99.90;;;;;;5080561;28;20052;-81
2022/01/10 10:20:21;;;;;;;28.73;17.42;;;2.80;99.90;;;;;;5081490;28;20100;-81
2022/01/10 10:22:49;;;;;;;26.60;16.60;;;2.90;99.90;;;;;;5080652;28;20052;-81
2022/01/10 10:25:16;;;;;;;24.33;14.48;;;3.20;99.90;;;;;;5075747;28;20044;-79
2022/01/10 10:27:45;;;;;;;26.27;14.95;;;3.50;99.90;;;;;;5076710;28;20467;-80
2022/01/10 10:30:19;;;;;;;28.75;14.57;;;4.00;99.90;;;;;;5077399;28;20059;-81
2022/01/10 10:32:46;;;;;;;26.73;15.43;;;4.00;99.90;;;;;;5087321;28;20049;-81
2022/01/10 10:35:13;;;;;;;27.58;16.10;;;4.40;99.90;;;;;;5087310;28;20096;-81
2022/01/10 10:37:40;;;;;;;27.63;15.18;;;4.80;99.90;;;;;;5103078;28;20044;-83
2022/01/10 10:40:10;;;;;;;23.58;13.82;;;5.10;99.90;;;;;;5081840;28;20063;-83
2022/01/10 10:42:38;;;;;;;24.58;14.60;;;5.50;99.90;;;;;;5077145;28;20078;-84
2022/01/10 10:45:09;;;;;;;24.48;14.18;;;5.90;99.90;;;;;;5085700;28;20077;-82
2022/01/10 10:47:37;;;;;;;23.15;13.60;;;6.20;99.90;;;;;;5082856;28;20291;-83
2022/01/10 10:50:06;;;;;;;22.15;13.70;;;6.50;99.90;;;;;;5083249;28;20084;-83
2022/01/10 10:52:34;;;;;;;23.77;14.85;;;6.80;99.90;;;;;;5086319;28;20059;-83
2022/01/10 10:55:11;;;;;;;26.83;14.45;;;7.20;99.90;;;;;;5089882;28;21010;-84
2022/01/10 10:57:37;;;;;;;21.05;12.70;;;7.50;99.90;;;;;;5080206;28;20052;-83
2022/01/10 11:00:10;;;;;;;25.33;13.93;;;7.80;99.90;;;;;;5078042;28;20068;-83
2022/01/10 11:02:36;;;;;;;20.70;12.57;;;7.90;99.90;;;;;;5082523;28;20070;-85
2022/01/10 11:05:05;;;;;;;25.10;13.65;;;8.00;99.90;;;;;;5076556;28;20483;-84
2022/01/10 11:07:33;;;;;;;23.58;12.85;;;8.20;99.90;;;;;;5088631;28;20090;-84
2022/01/10 11:10:00;;;;;;;22.75;13.38;;;8.50;99.90;;;;;;5082957;28;20064;-85
2022/01/10 11:12:28;;;;;;;20.08;12.18;;;8.70;99.90;;;;;;5085332;28;20111;-85
2022/01/10 11:14:56;;;;;;;20.48;13.52;;;8.90;99.90;;;;;;5096247;28;20089;-86
2022/01/10 11:17:22;;;;;;;22.38;13.90;;;9.00;99.90;;;;;;5081768;28;20044;-84
2022/01/10 11:20:12;;;;;;;22.50;13.95;;;9.20;99.90;;;;;;5080098;28;20455;-85
2022/01/10 11:22:40;;;;;;;27.13;13.75;;;9.10;99.90;;;;;;5081385;28;20047;-84
2022/01/10 11:25:20;;;;;;;22.92;13.45;;;8.70;99.90;;;;;;5086157;28;20040;-83
2022/01/10 11:27:47;;;;;;;21.63;13.23;;;8.20;99.90;;;;;;5086127;28;20045;-84
2022/01/10 11:30:24;;;;;;;21.63;12.75;;;7.70;99.90;;;;;;5086605;28;20040;-84
2022/01/10 11:33:09;;;;;;;25.98;14.15;;;7.10;99.90;;;;;;5086167;28;20040;-84
2022/01/10 11:35:55;;;;;;;22.42;14.57;;;6.70;99.90;;;;;;5087445;28;20059;-84
2022/01/10 11:38:29;;;;;;;23.48;13.88;;;6.30;99.90;;;;;;5091597;28;20446;-85
2022/01/10 11:41:05;;;;;;;22.83;14.02;;;6.00;99.90;;;;;;5089661;28;20044;-84
2022/01/10 11:43:50;;;;;;;28.83;15.43;;;5.90;99.90;;;;;;5090052;28;20450;-83
2022/01/10 11:46:19;;;;;;;26.93;14.73;;;5.70;99.90;;;;;;5091123;28;20044;-82
2022/01/10 11:48:58;;;;;;;30.05;15.75;;;5.60;99.90;;;;;;5085422;28;20051;-82
2022/01/10 11:51:36;;;;;;;22.95;13.82;;;5.50;99.90;;;;;;5085943;28;20368;-83
2022/01/10 11:54:39;;;;;;;30.63;15.90;;;5.50;99.90;;;;;;5099322;28;20070;-81
2022/01/10 11:57:12;;;;;;;31.17;16.38;;;5.60;99.90;;;;;;5091090;28;20103;-80
2022/01/10 11:59:39;;;;;;;29.45;15.18;;;5.70;99.90;;;;;;5072619;28;20586;-83
2022/01/10 12:02:10;;;;;;;29.27;16.17;;;5.70;99.90;;;;;;5089390;28;20052;-83
2022/01/10 12:04:41;;;;;;;23.90;15.23;;;5.60;99.90;;;;;;5087173;28;20051;-81
2022/01/10 12:07:10;;;;;;;25.48;15.75;;;5.40;99.90;;;;;;5079129;28;20123;-82
2022/01/10 12:09:37;;;;;;;29.05;15.82;;;5.30;99.90;;;;;;5081139;28;20565;-81
2022/01/10 12:12:04;;;;;;;24.67;15.50;;;5.30;99.90;;;;;;5083515;28;20050;-80
2022/01/10 12:14:31;;;;;;;26.15;16.67;;;5.20;99.90;;;;;;5097700;28;20095;-81
2022/01/10 12:16:58;;;;;;;29.77;17.27;;;5.10;99.90;;;;;;5068798;28;20448;-79
2022/01/10 12:19:24;;;;;;;30.50;17.20;;;5.10;99.90;;;;;;5091163;28;20047;-81
2022/01/10 12:21:51;;;;;;;32.65;17.20;;;5.20;99.90;;;;;;5083470;28;20135;-79
2022/01/10 12:24:17;;;;;;;31.98;18.92;;;5.10;99.90;;;;;;5090668;28;20059;-80
2022/01/10 12:26:44;;;;;;;31.42;18.38;;;5.10;99.90;;;;;;5096967;28;20132;-82
2022/01/10 12:29:12;;;;;;;32.35;18.90;;;5.20;99.90;;;;;;5097002;28;20096;-82
2022/01/10 12:31:39;;;;;;;31.27;17.90;;;5.40;99.90;;;;;;5102987;28;20031;-81
2022/01/10 12:34:08;;;;;;;33.78;18.63;;;5.60;99.90;;;;;;5096300;27;20067;-81
2022/01/10 12:36:35;;;;;;;28.33;16.92;;;5.70;99.90;;;;;;5085700;28;20040;-80
2022/01/10 12:39:20;;;;;;;27.08;15.88;;;5.70;99.90;;;;;;5093705;28;20037;-81
2022/01/10 12:41:46;;;;;;;29.33;16.27;;;5.60;99.90;;;;;;5079186;28;20036;-80
2022/01/10 12:44:11;;;;;;;26.23;15.32;;;5.50;99.90;;;;;;5096340;28;20040;-80
2022/01/10 12:46:37;;;;;;;29.85;15.90;;;5.40;99.90;;;;;;5082436;28;20097;-81
2022/01/10 12:49:06;;;;;;;31.38;16.05;;;5.30;99.90;;;;;;5099973;28;20547;-78
2022/01/10 12:51:37;;;;;;;25.85;15.27;;;5.40;99.90;;;;;;5096245;28;20044;-79